Pagina principale
METAR-TAF:

METAR-TAF

Aeroporti :

Aeroporto di Cervia-Pisignano

Cervia, Italia

latitudine: 44-13N, longitudine: 012-18E, altezza: 6 m

Osservazione

Il bollettino è stato emesso 40 minuti fa, alle 03:55 UTC
Vento 3 kt da ovest/nord-ovest
Temperature 17°C
Umidità 88%
Pressione 1015 hPa
Visibilità 10 km o più
nessuna nube inferiore a 1500 m e nessun cumulonembo

METAR: LIPC 180355Z 30003KT CAVOK 17/15 Q1015 RMK SKC VIS MIN 9999 WIND THR11 28004KT WIND THR29 /////KT BLU

Ora: 06:35 (04:35 UTC)

Previsione

Il bollettino è stato emesso 2 ore e 35 minuti fa, alle 02:00 UTC
Previsione valida dal 18 alle 03 UTC al 18 alle 12 UTC
Vento 5 kt da ovest/nord-ovest
Visibilità 10 km o più
Poco nuvoloso ad un'altezza di 3000 ft

TAF: LIPC 180200Z 1803/1812 30005KT 9999 FEW030

Osservazioni e previsioni meteorologiche di più di 4000 aeroporti (messaggi METAR e TAF).

Le stazioni disponibili sono rappresentate dai dischi gialli e rossi sulla carta.

Puntare il mouse per vedere il nome della stazione.

Clicca sopra per visualizzare le osservazioni e previsioni meteorologiche.

Per cambiare la mappa : fare clic sui pulsanti verdi con una croce nera per ingrandire, il pulsante verde con un trattino per diminuire, o sulla freccia verde per le mappe adiacenti.


METAR-TAF: